sensor_id;sensor_type;location;lat;lon;timestamp;P1;durP1;ratioP1;P2;durP2;ratioP2
21862;SDS011;11096;51.338;12.524;2023-07-13T00:01:44;2.05;;;0.90;;
21862;SDS011;11096;51.338;12.524;2023-07-13T00:04:11;9.43;;;1.05;;
21862;SDS011;11096;51.338;12.524;2023-07-13T00:06:37;2.90;;;1.00;;
21862;SDS011;11096;51.338;12.524;2023-07-13T00:09:02;2.80;;;1.17;;
21862;SDS011;11096;51.338;12.524;2023-07-13T00:11:27;3.42;;;1.02;;
21862;SDS011;11096;51.338;12.524;2023-07-13T00:13:53;4.05;;;1.17;;
21862;SDS011;11096;51.338;12.524;2023-07-13T00:16:19;6.38;;;1.60;;
21862;SDS011;11096;51.338;12.524;2023-07-13T00:18:44;7.30;;;1.40;;
21862;SDS011;11096;51.338;12.524;2023-07-13T00:21:11;4.55;;;0.90;;
21862;SDS011;11096;51.338;12.524;2023-07-13T00:23:37;4.70;;;1.00;;
21862;SDS011;11096;51.338;12.524;2023-07-13T00:26:05;3.00;;;1.20;;
21862;SDS011;11096;51.338;12.524;2023-07-13T00:28:33;2.70;;;1.10;;
21862;SDS011;11096;51.338;12.524;2023-07-13T00:30:59;3.13;;;1.10;;
21862;SDS011;11096;51.338;12.524;2023-07-13T00:33:27;1.98;;;0.82;;
21862;SDS011;11096;51.338;12.524;2023-07-13T00:35:53;2.75;;;1.48;;
21862;SDS011;11096;51.338;12.524;2023-07-13T00:38:20;5.50;;;1.00;;
21862;SDS011;11096;51.338;12.524;2023-07-13T00:40:45;8.50;;;1.27;;
21862;SDS011;11096;51.338;12.524;2023-07-13T00:43:12;3.75;;;0.77;;
21862;SDS011;11096;51.338;12.524;2023-07-13T00:48:13;1.85;;;0.90;;
21862;SDS011;11096;51.338;12.524;2023-07-13T00:50:40;2.28;;;1.20;;
21862;SDS011;11096;51.338;12.524;2023-07-13T00:53:07;3.53;;;1.20;;
21862;SDS011;11096;51.338;12.524;2023-07-13T00:55:34;4.13;;;1.20;;
21862;SDS011;11096;51.338;12.524;2023-07-13T00:58:01;4.05;;;1.17;;
21862;SDS011;11096;51.338;12.524;2023-07-13T01:00:27;3.78;;;1.13;;
21862;SDS011;11096;51.338;12.524;2023-07-13T01:02:54;7.38;;;1.60;;
21862;SDS011;11096;51.338;12.524;2023-07-13T01:05:21;8.00;;;1.70;;
21862;SDS011;11096;51.338;12.524;2023-07-13T01:07:48;7.38;;;1.48;;
21862;SDS011;11096;51.338;12.524;2023-07-13T01:10:15;2.15;;;1.20;;
21862;SDS011;11096;51.338;12.524;2023-07-13T01:12:41;2.13;;;1.30;;
21862;SDS011;11096;51.338;12.524;2023-07-13T01:15:33;3.25;;;1.63;;
21862;SDS011;11096;51.338;12.524;2023-07-13T01:18:02;3.05;;;1.40;;
21862;SDS011;11096;51.338;12.524;2023-07-13T01:20:30;9.63;;;1.70;;
21862;SDS011;11096;51.338;12.524;2023-07-13T01:22:56;5.78;;;1.15;;
21862;SDS011;11096;51.338;12.524;2023-07-13T01:25:21;3.70;;;1.40;;
21862;SDS011;11096;51.338;12.524;2023-07-13T01:27:47;4.47;;;1.00;;
21862;SDS011;11096;51.338;12.524;2023-07-13T01:30:12;2.05;;;1.23;;
21862;SDS011;11096;51.338;12.524;2023-07-13T01:32:38;4.20;;;1.17;;
21862;SDS011;11096;51.338;12.524;2023-07-13T01:35:06;4.50;;;1.50;;
21862;SDS011;11096;51.338;12.524;2023-07-13T01:37:32;4.38;;;0.98;;
21862;SDS011;11096;51.338;12.524;2023-07-13T01:39:58;5.07;;;1.25;;
21862;SDS011;11096;51.338;12.524;2023-07-13T01:42:24;6.07;;;1.45;;
21862;SDS011;11096;51.338;12.524;2023-07-13T01:44:49;4.65;;;1.52;;
21862;SDS011;11096;51.338;12.524;2023-07-13T01:47:15;5.00;;;0.85;;
21862;SDS011;11096;51.338;12.524;2023-07-13T01:49:40;4.95;;;1.10;;
21862;SDS011;11096;51.338;12.524;2023-07-13T01:52:07;6.05;;;0.93;;
21862;SDS011;11096;51.338;12.524;2023-07-13T01:54:32;4.13;;;1.23;;
21862;SDS011;11096;51.338;12.524;2023-07-13T01:56:59;4.18;;;1.00;;
21862;SDS011;11096;51.338;12.524;2023-07-13T01:59:24;2.90;;;1.48;;
21862;SDS011;11096;51.338;12.524;2023-07-13T02:01:50;3.33;;;1.20;;
21862;SDS011;11096;51.338;12.524;2023-07-13T02:04:15;7.13;;;1.10;;
21862;SDS011;11096;51.338;12.524;2023-07-13T02:06:40;4.50;;;1.25;;
21862;SDS011;11096;51.338;12.524;2023-07-13T02:09:06;4.55;;;1.35;;
21862;SDS011;11096;51.338;12.524;2023-07-13T02:11:32;4.93;;;1.50;;
21862;SDS011;11096;51.338;12.524;2023-07-13T02:14:01;3.92;;;0.90;;
21862;SDS011;11096;51.338;12.524;2023-07-13T02:16:27;2.90;;;1.23;;
21862;SDS011;11096;51.338;12.524;2023-07-13T02:18:54;2.75;;;1.20;;
21862;SDS011;11096;51.338;12.524;2023-07-13T02:21:20;8.02;;;1.67;;
21862;SDS011;11096;51.338;12.524;2023-07-13T02:23:47;2.97;;;0.90;;
21862;SDS011;11096;51.338;12.524;2023-07-13T02:26:12;3.28;;;1.27;;
21862;SDS011;11096;51.338;12.524;2023-07-13T02:28:38;3.78;;;1.27;;
21862;SDS011;11096;51.338;12.524;2023-07-13T02:31:11;4.00;;;1.10;;
21862;SDS011;11096;51.338;12.524;2023-07-13T02:33:38;6.90;;;1.10;;
21862;SDS011;11096;51.338;12.524;2023-07-13T02:36:04;3.25;;;1.20;;
21862;SDS011;11096;51.338;12.524;2023-07-13T02:38:30;2.70;;;1.10;;
21862;SDS011;11096;51.338;12.524;2023-07-13T02:40:58;3.50;;;1.23;;
21862;SDS011;11096;51.338;12.524;2023-07-13T02:43:24;5.72;;;1.30;;
21862;SDS011;11096;51.338;12.524;2023-07-13T02:45:49;3.65;;;1.00;;
21862;SDS011;11096;51.338;12.524;2023-07-13T02:48:15;5.53;;;1.17;;
21862;SDS011;11096;51.338;12.524;2023-07-13T02:50:40;3.13;;;1.35;;
21862;SDS011;11096;51.338;12.524;2023-07-13T02:53:06;6.80;;;1.17;;
21862;SDS011;11096;51.338;12.524;2023-07-13T02:55:31;2.25;;;1.13;;
21862;SDS011;11096;51.338;12.524;2023-07-13T02:57:57;6.30;;;1.25;;
21862;SDS011;11096;51.338;12.524;2023-07-13T03:00:22;10.20;;;1.55;;
21862;SDS011;11096;51.338;12.524;2023-07-13T03:02:48;6.55;;;1.30;;
21862;SDS011;11096;51.338;12.524;2023-07-13T03:05:14;3.35;;;1.25;;
21862;SDS011;11096;51.338;12.524;2023-07-13T03:07:41;2.55;;;1.13;;
21862;SDS011;11096;51.338;12.524;2023-07-13T03:10:07;4.85;;;1.20;;
21862;SDS011;11096;51.338;12.524;2023-07-13T03:12:33;2.83;;;1.10;;
21862;SDS011;11096;51.338;12.524;2023-07-13T03:14:58;2.10;;;1.20;;
21862;SDS011;11096;51.338;12.524;2023-07-13T03:17:24;2.53;;;1.23;;
21862;SDS011;11096;51.338;12.524;2023-07-13T03:19:49;4.10;;;1.38;;
21862;SDS011;11096;51.338;12.524;2023-07-13T03:22:16;3.10;;;1.15;;
21862;SDS011;11096;51.338;12.524;2023-07-13T03:24:45;6.10;;;1.55;;
21862;SDS011;11096;51.338;12.524;2023-07-13T03:27:10;3.35;;;1.38;;
21862;SDS011;11096;51.338;12.524;2023-07-13T03:29:35;6.57;;;1.42;;
21862;SDS011;11096;51.338;12.524;2023-07-13T03:32:01;8.55;;;1.80;;
21862;SDS011;11096;51.338;12.524;2023-07-13T03:34:26;5.35;;;1.77;;
21862;SDS011;11096;51.338;12.524;2023-07-13T03:36:55;2.50;;;1.23;;
21862;SDS011;11096;51.338;12.524;2023-07-13T03:39:21;4.55;;;1.25;;
21862;SDS011;11096;51.338;12.524;2023-07-13T03:41:46;6.63;;;1.55;;
21862;SDS011;11096;51.338;12.524;2023-07-13T03:44:12;6.07;;;1.83;;
21862;SDS011;11096;51.338;12.524;2023-07-13T03:46:37;5.85;;;1.50;;
21862;SDS011;11096;51.338;12.524;2023-07-13T03:49:04;4.30;;;1.38;;
21862;SDS011;11096;51.338;12.524;2023-07-13T03:51:30;6.35;;;1.60;;
21862;SDS011;11096;51.338;12.524;2023-07-13T03:53:56;4.93;;;1.48;;
21862;SDS011;11096;51.338;12.524;2023-07-13T03:56:21;2.92;;;1.60;;
21862;SDS011;11096;51.338;12.524;2023-07-13T03:58:48;6.10;;;1.65;;
21862;SDS011;11096;51.338;12.524;2023-07-13T04:01:15;6.57;;;1.98;;
21862;SDS011;11096;51.338;12.524;2023-07-13T04:03:42;4.25;;;1.77;;
21862;SDS011;11096;51.338;12.524;2023-07-13T04:06:12;3.67;;;1.80;;
21862;SDS011;11096;51.338;12.524;2023-07-13T04:08:46;4.82;;;1.80;;
21862;SDS011;11096;51.338;12.524;2023-07-13T04:11:14;4.13;;;2.30;;
21862;SDS011;11096;51.338;12.524;2023-07-13T04:13:40;6.85;;;1.92;;
21862;SDS011;11096;51.338;12.524;2023-07-13T04:16:05;4.13;;;1.60;;
21862;SDS011;11096;51.338;12.524;2023-07-13T04:18:30;4.13;;;1.80;;
21862;SDS011;11096;51.338;12.524;2023-07-13T04:20:56;3.22;;;1.80;;
21862;SDS011;11096;51.338;12.524;2023-07-13T04:23:21;5.20;;;2.17;;
21862;SDS011;11096;51.338;12.524;2023-07-13T04:25:47;4.03;;;1.80;;
21862;SDS011;11096;51.338;12.524;2023-07-13T04:28:15;4.38;;;1.98;;
21862;SDS011;11096;51.338;12.524;2023-07-13T04:30:42;4.45;;;2.25;;
21862;SDS011;11096;51.338;12.524;2023-07-13T04:33:08;2.88;;;1.60;;
21862;SDS011;11096;51.338;12.524;2023-07-13T04:35:34;3.80;;;1.75;;
21862;SDS011;11096;51.338;12.524;2023-07-13T04:38:00;4.80;;;1.95;;
21862;SDS011;11096;51.338;12.524;2023-07-13T04:40:26;5.28;;;2.05;;
21862;SDS011;11096;51.338;12.524;2023-07-13T04:42:53;4.55;;;2.17;;
21862;SDS011;11096;51.338;12.524;2023-07-13T04:45:18;4.63;;;2.15;;
21862;SDS011;11096;51.338;12.524;2023-07-13T04:47:44;5.18;;;2.10;;
21862;SDS011;11096;51.338;12.524;2023-07-13T04:50:09;3.95;;;1.70;;
21862;SDS011;11096;51.338;12.524;2023-07-13T04:52:40;6.80;;;2.28;;
21862;SDS011;11096;51.338;12.524;2023-07-13T04:55:07;10.20;;;1.95;;
21862;SDS011;11096;51.338;12.524;2023-07-13T04:57:32;5.18;;;1.90;;
21862;SDS011;11096;51.338;12.524;2023-07-13T04:59:58;4.43;;;1.90;;
21862;SDS011;11096;51.338;12.524;2023-07-13T05:02:26;4.57;;;2.00;;
21862;SDS011;11096;51.338;12.524;2023-07-13T05:04:53;5.57;;;2.10;;
21862;SDS011;11096;51.338;12.524;2023-07-13T05:07:18;5.10;;;2.00;;
21862;SDS011;11096;51.338;12.524;2023-07-13T05:09:44;3.70;;;2.00;;
21862;SDS011;11096;51.338;12.524;2023-07-13T05:12:09;3.92;;;2.25;;
21862;SDS011;11096;51.338;12.524;2023-07-13T05:14:35;5.07;;;2.00;;
21862;SDS011;11096;51.338;12.524;2023-07-13T05:17:00;4.60;;;2.58;;
21862;SDS011;11096;51.338;12.524;2023-07-13T05:19:26;3.63;;;1.92;;
21862;SDS011;11096;51.338;12.524;2023-07-13T05:21:51;5.60;;;2.42;;
21862;SDS011;11096;51.338;12.524;2023-07-13T05:24:16;3.58;;;1.77;;
21862;SDS011;11096;51.338;12.524;2023-07-13T05:26:42;4.80;;;2.10;;
21862;SDS011;11096;51.338;12.524;2023-07-13T05:29:07;4.97;;;1.60;;
21862;SDS011;11096;51.338;12.524;2023-07-13T05:31:32;9.30;;;2.00;;
21862;SDS011;11096;51.338;12.524;2023-07-13T05:33:58;5.05;;;1.63;;
21862;SDS011;11096;51.338;12.524;2023-07-13T05:36:23;6.60;;;1.98;;
21862;SDS011;11096;51.338;12.524;2023-07-13T05:38:49;2.67;;;1.20;;
21862;SDS011;11096;51.338;12.524;2023-07-13T05:41:14;3.97;;;1.83;;
21862;SDS011;11096;51.338;12.524;2023-07-13T05:43:39;3.95;;;1.50;;
21862;SDS011;11096;51.338;12.524;2023-07-13T05:46:04;4.38;;;1.52;;
21862;SDS011;11096;51.338;12.524;2023-07-13T05:48:30;3.03;;;1.23;;
21862;SDS011;11096;51.338;12.524;2023-07-13T05:50:55;4.53;;;1.80;;
21862;SDS011;11096;51.338;12.524;2023-07-13T05:53:21;2.75;;;1.20;;
21862;SDS011;11096;51.338;12.524;2023-07-13T05:55:46;6.20;;;1.52;;
21862;SDS011;11096;51.338;12.524;2023-07-13T05:58:15;4.68;;;1.60;;
21862;SDS011;11096;51.338;12.524;2023-07-13T06:00:42;3.17;;;1.40;;
21862;SDS011;11096;51.338;12.524;2023-07-13T06:03:07;5.20;;;1.00;;
21862;SDS011;11096;51.338;12.524;2023-07-13T06:05:33;3.85;;;1.38;;
21862;SDS011;11096;51.338;12.524;2023-07-13T06:08:01;4.28;;;1.40;;
21862;SDS011;11096;51.338;12.524;2023-07-13T06:10:26;2.97;;;1.17;;
21862;SDS011;11096;51.338;12.524;2023-07-13T06:12:51;3.47;;;1.10;;
21862;SDS011;11096;51.338;12.524;2023-07-13T06:15:17;2.60;;;1.13;;
21862;SDS011;11096;51.338;12.524;2023-07-13T06:17:43;5.00;;;1.50;;
21862;SDS011;11096;51.338;12.524;2023-07-13T06:20:09;8.48;;;1.50;;
21862;SDS011;11096;51.338;12.524;2023-07-13T06:22:34;3.95;;;1.17;;
21862;SDS011;11096;51.338;12.524;2023-07-13T06:25:00;5.50;;;1.60;;
21862;SDS011;11096;51.338;12.524;2023-07-13T06:27:25;8.38;;;1.40;;
21862;SDS011;11096;51.338;12.524;2023-07-13T06:29:51;1.85;;;0.93;;
21862;SDS011;11096;51.338;12.524;2023-07-13T06:32:16;3.85;;;1.20;;
21862;SDS011;11096;51.338;12.524;2023-07-13T06:34:42;5.30;;;1.20;;
21862;SDS011;11096;51.338;12.524;2023-07-13T06:37:08;5.72;;;1.40;;
21862;SDS011;11096;51.338;12.524;2023-07-13T06:39:34;5.90;;;1.60;;
21862;SDS011;11096;51.338;12.524;2023-07-13T06:41:59;6.47;;;1.63;;
21862;SDS011;11096;51.338;12.524;2023-07-13T06:44:24;4.45;;;1.10;;
21862;SDS011;11096;51.338;12.524;2023-07-13T06:46:50;7.05;;;1.30;;
21862;SDS011;11096;51.338;12.524;2023-07-13T06:49:15;5.40;;;1.08;;
21862;SDS011;11096;51.338;12.524;2023-07-13T06:51:40;6.40;;;1.23;;
21862;SDS011;11096;51.338;12.524;2023-07-13T06:54:06;3.15;;;1.05;;
21862;SDS011;11096;51.338;12.524;2023-07-13T06:56:31;4.18;;;1.20;;
21862;SDS011;11096;51.338;12.524;2023-07-13T06:58:57;4.88;;;1.17;;
21862;SDS011;11096;51.338;12.524;2023-07-13T07:01:25;4.97;;;1.33;;
21862;SDS011;11096;51.338;12.524;2023-07-13T07:03:50;3.00;;;1.20;;
21862;SDS011;11096;51.338;12.524;2023-07-13T07:06:17;11.23;;;1.70;;
21862;SDS011;11096;51.338;12.524;2023-07-13T07:08:45;8.27;;;1.52;;
21862;SDS011;11096;51.338;12.524;2023-07-13T07:11:16;4.45;;;1.40;;
21862;SDS011;11096;51.338;12.524;2023-07-13T07:13:44;6.63;;;1.30;;
21862;SDS011;11096;51.338;12.524;2023-07-13T07:16:10;4.82;;;1.17;;
21862;SDS011;11096;51.338;12.524;2023-07-13T07:18:35;7.53;;;1.23;;
21862;SDS011;11096;51.338;12.524;2023-07-13T07:21:01;4.75;;;1.13;;
21862;SDS011;11096;51.338;12.524;2023-07-13T07:23:27;4.50;;;1.17;;
21862;SDS011;11096;51.338;12.524;2023-07-13T07:25:52;6.15;;;1.27;;
21862;SDS011;11096;51.338;12.524;2023-07-13T07:28:18;7.28;;;1.17;;
21862;SDS011;11096;51.338;12.524;2023-07-13T07:30:44;8.35;;;1.40;;
21862;SDS011;11096;51.338;12.524;2023-07-13T07:33:10;5.30;;;1.25;;
21862;SDS011;11096;51.338;12.524;2023-07-13T07:35:35;7.97;;;1.38;;
21862;SDS011;11096;51.338;12.524;2023-07-13T07:38:01;10.30;;;1.55;;
21862;SDS011;11096;51.338;12.524;2023-07-13T07:40:27;3.50;;;1.13;;
21862;SDS011;11096;51.338;12.524;2023-07-13T07:42:52;3.42;;;1.13;;
21862;SDS011;11096;51.338;12.524;2023-07-13T07:45:18;6.40;;;1.20;;
21862;SDS011;11096;51.338;12.524;2023-07-13T07:47:44;6.15;;;1.02;;
21862;SDS011;11096;51.338;12.524;2023-07-13T07:50:10;2.88;;;0.85;;
21862;SDS011;11096;51.338;12.524;2023-07-13T07:52:35;4.90;;;1.27;;
21862;SDS011;11096;51.338;12.524;2023-07-13T07:55:01;7.30;;;1.30;;
21862;SDS011;11096;51.338;12.524;2023-07-13T07:57:27;5.10;;;0.90;;
21862;SDS011;11096;51.338;12.524;2023-07-13T07:59:52;3.15;;;1.10;;
21862;SDS011;11096;51.338;12.524;2023-07-13T08:02:17;3.40;;;1.10;;
21862;SDS011;11096;51.338;12.524;2023-07-13T08:04:43;5.28;;;1.40;;
21862;SDS011;11096;51.338;12.524;2023-07-13T08:07:08;5.20;;;1.50;;
21862;SDS011;11096;51.338;12.524;2023-07-13T08:09:34;8.35;;;1.40;;
21862;SDS011;11096;51.338;12.524;2023-07-13T08:12:00;2.83;;;1.00;;
21862;SDS011;11096;51.338;12.524;2023-07-13T08:14:25;7.60;;;1.30;;
21862;SDS011;11096;51.338;12.524;2023-07-13T08:16:50;6.57;;;1.42;;
21862;SDS011;11096;51.338;12.524;2023-07-13T08:19:16;3.75;;;1.25;;
21862;SDS011;11096;51.338;12.524;2023-07-13T08:21:41;6.72;;;1.17;;
21862;SDS011;11096;51.338;12.524;2023-07-13T08:24:10;5.35;;;0.88;;
21862;SDS011;11096;51.338;12.524;2023-07-13T08:26:35;3.53;;;1.10;;
21862;SDS011;11096;51.338;12.524;2023-07-13T08:29:01;5.38;;;1.25;;
21862;SDS011;11096;51.338;12.524;2023-07-13T08:31:28;7.07;;;1.20;;
21862;SDS011;11096;51.338;12.524;2023-07-13T08:33:56;7.22;;;1.45;;
21862;SDS011;11096;51.338;12.524;2023-07-13T08:36:21;4.07;;;1.15;;
21862;SDS011;11096;51.338;12.524;2023-07-13T08:38:47;4.60;;;1.05;;
21862;SDS011;11096;51.338;12.524;2023-07-13T08:41:13;6.90;;;1.20;;
21862;SDS011;11096;51.338;12.524;2023-07-13T08:43:44;5.65;;;1.00;;
21862;SDS011;11096;51.338;12.524;2023-07-13T08:48:44;4.47;;;0.93;;
21862;SDS011;11096;51.338;12.524;2023-07-13T08:54:10;5.07;;;0.80;;
21862;SDS011;11096;51.338;12.524;2023-07-13T08:56:43;4.80;;;1.02;;
21862;SDS011;11096;51.338;12.524;2023-07-13T08:59:12;3.63;;;0.80;;
21862;SDS011;11096;51.338;12.524;2023-07-13T09:04:54;4.65;;;0.88;;
21862;SDS011;11096;51.338;12.524;2023-07-13T09:07:30;6.13;;;1.35;;
21862;SDS011;11096;51.338;12.524;2023-07-13T09:10:17;7.50;;;1.60;;
21862;SDS011;11096;51.338;12.524;2023-07-13T09:15:41;6.45;;;1.38;;
21862;SDS011;11096;51.338;12.524;2023-07-13T09:20:54;5.47;;;1.05;;
21862;SDS011;11096;51.338;12.524;2023-07-13T09:23:26;4.45;;;1.02;;
21862;SDS011;11096;51.338;12.524;2023-07-13T09:25:58;6.53;;;1.13;;
21862;SDS011;11096;51.338;12.524;2023-07-13T09:28:28;4.28;;;0.70;;
21862;SDS011;11096;51.338;12.524;2023-07-13T09:33:23;4.55;;;0.85;;
21862;SDS011;11096;51.338;12.524;2023-07-13T09:35:50;7.90;;;1.02;;
21862;SDS011;11096;51.338;12.524;2023-07-13T09:38:16;4.55;;;1.17;;
21862;SDS011;11096;51.338;12.524;2023-07-13T09:40:46;4.70;;;1.05;;
21862;SDS011;11096;51.338;12.524;2023-07-13T09:43:21;4.40;;;1.00;;
21862;SDS011;11096;51.338;12.524;2023-07-13T09:45:47;7.28;;;1.00;;
21862;SDS011;11096;51.338;12.524;2023-07-13T09:48:13;4.32;;;0.82;;
21862;SDS011;11096;51.338;12.524;2023-07-13T09:50:40;2.25;;;0.90;;
21862;SDS011;11096;51.338;12.524;2023-07-13T09:53:14;4.65;;;0.80;;
21862;SDS011;11096;51.338;12.524;2023-07-13T09:55:42;2.53;;;1.02;;
21862;SDS011;11096;51.338;12.524;2023-07-13T09:58:19;4.07;;;1.08;;
21862;SDS011;11096;51.338;12.524;2023-07-13T10:01:21;2.38;;;1.00;;
21862;SDS011;11096;51.338;12.524;2023-07-13T10:03:41;5.13;;;1.00;;
21862;SDS011;11096;51.338;12.524;2023-07-13T10:06:19;4.65;;;0.82;;
21862;SDS011;11096;51.338;12.524;2023-07-13T10:08:51;4.07;;;1.00;;
21862;SDS011;11096;51.338;12.524;2023-07-13T10:11:22;5.38;;;0.80;;
21862;SDS011;11096;51.338;12.524;2023-07-13T10:13:58;7.00;;;0.90;;
21862;SDS011;11096;51.338;12.524;2023-07-13T10:16:28;5.18;;;0.98;;
21862;SDS011;11096;51.338;12.524;2023-07-13T10:18:58;3.53;;;0.88;;
21862;SDS011;11096;51.338;12.524;2023-07-13T10:21:38;8.32;;;1.13;;
21862;SDS011;11096;51.338;12.524;2023-07-13T10:26:45;4.20;;;1.17;;
21862;SDS011;11096;51.338;12.524;2023-07-13T10:29:16;5.93;;;0.93;;
21862;SDS011;11096;51.338;12.524;2023-07-13T10:31:41;3.22;;;0.90;;
21862;SDS011;11096;51.338;12.524;2023-07-13T10:34:10;3.58;;;1.15;;
21862;SDS011;11096;51.338;12.524;2023-07-13T10:36:46;4.85;;;1.08;;
21862;SDS011;11096;51.338;12.524;2023-07-13T10:39:17;3.78;;;0.90;;
21862;SDS011;11096;51.338;12.524;2023-07-13T10:41:46;5.10;;;1.33;;
21862;SDS011;11096;51.338;12.524;2023-07-13T10:44:30;4.82;;;1.02;;
21862;SDS011;11096;51.338;12.524;2023-07-13T10:46:58;5.70;;;0.73;;
21862;SDS011;11096;51.338;12.524;2023-07-13T10:49:30;3.30;;;0.60;;
21862;SDS011;11096;51.338;12.524;2023-07-13T10:51:56;6.47;;;0.93;;
21862;SDS011;11096;51.338;12.524;2023-07-13T10:54:32;4.80;;;0.63;;
21862;SDS011;11096;51.338;12.524;2023-07-13T10:59:48;3.42;;;0.80;;
21862;SDS011;11096;51.338;12.524;2023-07-13T11:02:34;6.32;;;1.23;;
21862;SDS011;11096;51.338;12.524;2023-07-13T11:05:01;5.65;;;0.98;;
21862;SDS011;11096;51.338;12.524;2023-07-13T11:08:11;5.15;;;0.70;;
21862;SDS011;11096;51.338;12.524;2023-07-13T11:10:57;2.72;;;0.70;;
21862;SDS011;11096;51.338;12.524;2023-07-13T11:18:40;5.40;;;1.17;;
21862;SDS011;11096;51.338;12.524;2023-07-13T11:23:43;5.82;;;0.90;;
21862;SDS011;11096;51.338;12.524;2023-07-13T11:29:23;7.93;;;0.80;;
21862;SDS011;11096;51.338;12.524;2023-07-13T11:32:29;5.55;;;0.82;;
21862;SDS011;11096;51.338;12.524;2023-07-13T11:34:56;4.72;;;0.70;;
21862;SDS011;11096;51.338;12.524;2023-07-13T11:37:22;2.35;;;0.40;;
21862;SDS011;11096;51.338;12.524;2023-07-13T11:39:50;10.85;;;1.15;;
21862;SDS011;11096;51.338;12.524;2023-07-13T11:42:18;2.67;;;0.50;;
21862;SDS011;11096;51.338;12.524;2023-07-13T11:44:49;4.90;;;0.40;;
21862;SDS011;11096;51.338;12.524;2023-07-13T11:47:22;3.30;;;0.68;;
21862;SDS011;11096;51.338;12.524;2023-07-13T11:49:53;2.30;;;0.63;;
21862;SDS011;11096;51.338;12.524;2023-07-13T11:52:22;4.60;;;0.40;;
21862;SDS011;11096;51.338;12.524;2023-07-13T11:54:54;2.28;;;0.47;;
21862;SDS011;11096;51.338;12.524;2023-07-13T11:59:59;4.97;;;0.80;;
21862;SDS011;11096;51.338;12.524;2023-07-13T12:05:01;1.85;;;0.70;;
21862;SDS011;11096;51.338;12.524;2023-07-13T12:07:29;12.27;;;1.05;;
21862;SDS011;11096;51.338;12.524;2023-07-13T12:12:34;2.38;;;0.52;;
21862;SDS011;11096;51.338;12.524;2023-07-13T12:15:00;1.83;;;0.70;;
21862;SDS011;11096;51.338;12.524;2023-07-13T12:17:25;9.10;;;1.45;;
21862;SDS011;11096;51.338;12.524;2023-07-13T12:19:51;6.13;;;0.50;;
21862;SDS011;11096;51.338;12.524;2023-07-13T12:22:18;3.83;;;0.40;;
21862;SDS011;11096;51.338;12.524;2023-07-13T12:24:45;3.45;;;0.47;;
21862;SDS011;11096;51.338;12.524;2023-07-13T12:27:25;1.02;;;0.38;;
21862;SDS011;11096;51.338;12.524;2023-07-13T12:29:56;2.83;;;0.30;;
21862;SDS011;11096;51.338;12.524;2023-07-13T12:32:24;5.20;;;0.47;;
21862;SDS011;11096;51.338;12.524;2023-07-13T12:34:52;1.90;;;0.52;;
21862;SDS011;11096;51.338;12.524;2023-07-13T12:37:19;3.42;;;0.40;;
21862;SDS011;11096;51.338;12.524;2023-07-13T12:39:45;3.33;;;0.40;;
21862;SDS011;11096;51.338;12.524;2023-07-13T12:42:20;3.08;;;0.60;;
21862;SDS011;11096;51.338;12.524;2023-07-13T12:44:49;3.25;;;1.70;;
21862;SDS011;11096;51.338;12.524;2023-07-13T12:47:15;2.33;;;0.40;;
21862;SDS011;11096;51.338;12.524;2023-07-13T12:49:43;2.95;;;0.50;;
21862;SDS011;11096;51.338;12.524;2023-07-13T12:52:21;2.58;;;0.30;;
21862;SDS011;11096;51.338;12.524;2023-07-13T12:55:07;3.95;;;0.30;;
21862;SDS011;11096;51.338;12.524;2023-07-13T13:02:54;3.67;;;0.70;;
21862;SDS011;11096;51.338;12.524;2023-07-13T13:05:21;7.40;;;1.90;;
21862;SDS011;11096;51.338;12.524;2023-07-13T13:07:49;5.88;;;4.05;;
21862;SDS011;11096;51.338;12.524;2023-07-13T13:10:15;3.67;;;0.98;;
21862;SDS011;11096;51.338;12.524;2023-07-13T13:12:41;3.65;;;0.85;;
21862;SDS011;11096;51.338;12.524;2023-07-13T13:15:07;2.05;;;0.50;;
21862;SDS011;11096;51.338;12.524;2023-07-13T13:17:34;7.53;;;0.60;;
21862;SDS011;11096;51.338;12.524;2023-07-13T13:19:59;2.92;;;0.82;;
21862;SDS011;11096;51.338;12.524;2023-07-13T13:22:25;9.15;;;1.50;;
21862;SDS011;11096;51.338;12.524;2023-07-13T13:24:50;13.20;;;0.73;;
21862;SDS011;11096;51.338;12.524;2023-07-13T13:27:24;3.10;;;0.40;;
21862;SDS011;11096;51.338;12.524;2023-07-13T13:29:51;1.08;;;0.50;;
21862;SDS011;11096;51.338;12.524;2023-07-13T13:32:19;4.18;;;0.47;;
21862;SDS011;11096;51.338;12.524;2023-07-13T13:34:45;1.30;;;0.52;;
21862;SDS011;11096;51.338;12.524;2023-07-13T13:37:20;1.30;;;0.60;;
21862;SDS011;11096;51.338;12.524;2023-07-13T13:39:48;3.08;;;0.38;;
21862;SDS011;11096;51.338;12.524;2023-07-13T13:42:14;5.35;;;0.52;;
21862;SDS011;11096;51.338;12.524;2023-07-13T13:44:40;3.58;;;0.55;;
21862;SDS011;11096;51.338;12.524;2023-07-13T13:47:29;4.68;;;0.82;;
21862;SDS011;11096;51.338;12.524;2023-07-13T13:49:56;4.22;;;0.50;;
21862;SDS011;11096;51.338;12.524;2023-07-13T13:52:21;4.78;;;0.80;;
21862;SDS011;11096;51.338;12.524;2023-07-13T13:54:47;3.20;;;0.90;;
21862;SDS011;11096;51.338;12.524;2023-07-13T13:57:13;7.28;;;0.55;;
21862;SDS011;11096;51.338;12.524;2023-07-13T13:59:39;2.90;;;0.50;;
21862;SDS011;11096;51.338;12.524;2023-07-13T14:02:19;2.90;;;0.50;;
21862;SDS011;11096;51.338;12.524;2023-07-13T14:04:50;5.22;;;0.75;;
21862;SDS011;11096;51.338;12.524;2023-07-13T14:07:22;1.30;;;0.60;;
21862;SDS011;11096;51.338;12.524;2023-07-13T14:09:48;3.20;;;0.50;;
21862;SDS011;11096;51.338;12.524;2023-07-13T14:12:14;8.68;;;1.33;;
21862;SDS011;11096;51.338;12.524;2023-07-13T14:14:39;4.97;;;0.90;;
21862;SDS011;11096;51.338;12.524;2023-07-13T14:17:09;5.90;;;0.90;;
21862;SDS011;11096;51.338;12.524;2023-07-13T14:19:48;1.48;;;0.60;;
21862;SDS011;11096;51.338;12.524;2023-07-13T14:22:16;4.55;;;0.65;;
21862;SDS011;11096;51.338;12.524;2023-07-13T14:24:42;4.22;;;0.57;;
21862;SDS011;11096;51.338;12.524;2023-07-13T14:27:09;7.55;;;0.63;;
21862;SDS011;11096;51.338;12.524;2023-07-13T14:29:36;7.20;;;1.40;;
21862;SDS011;11096;51.338;12.524;2023-07-13T14:32:01;6.85;;;0.63;;
21862;SDS011;11096;51.338;12.524;2023-07-13T14:34:26;2.78;;;0.40;;
21862;SDS011;11096;51.338;12.524;2023-07-13T14:36:53;4.30;;;0.63;;
21862;SDS011;11096;51.338;12.524;2023-07-13T14:39:19;4.07;;;0.80;;
21862;SDS011;11096;51.338;12.524;2023-07-13T14:41:49;5.05;;;0.80;;
21862;SDS011;11096;51.338;12.524;2023-07-13T14:44:23;1.83;;;0.40;;
21862;SDS011;11096;51.338;12.524;2023-07-13T14:46:50;7.85;;;0.82;;
21862;SDS011;11096;51.338;12.524;2023-07-13T14:49:34;3.33;;;0.57;;
21862;SDS011;11096;51.338;12.524;2023-07-13T14:54:41;2.05;;;0.60;;
21862;SDS011;11096;51.338;12.524;2023-07-13T14:57:18;2.30;;;0.50;;
21862;SDS011;11096;51.338;12.524;2023-07-13T14:59:44;2.20;;;0.40;;
21862;SDS011;11096;51.338;12.524;2023-07-13T15:02:14;2.03;;;0.52;;
21862;SDS011;11096;51.338;12.524;2023-07-13T15:04:42;2.05;;;0.63;;
21862;SDS011;11096;51.338;12.524;2023-07-13T15:07:09;5.65;;;0.80;;
21862;SDS011;11096;51.338;12.524;2023-07-13T15:09:37;9.77;;;1.40;;
21862;SDS011;11096;51.338;12.524;2023-07-13T15:12:02;2.78;;;0.70;;
21862;SDS011;11096;51.338;12.524;2023-07-13T15:14:30;3.30;;;0.45;;
21862;SDS011;11096;51.338;12.524;2023-07-13T15:16:56;7.95;;;0.93;;
21862;SDS011;11096;51.338;12.524;2023-07-13T15:19:21;1.38;;;0.65;;
21862;SDS011;11096;51.338;12.524;2023-07-13T15:21:48;4.93;;;0.90;;
21862;SDS011;11096;51.338;12.524;2023-07-13T15:24:15;4.18;;;0.60;;
21862;SDS011;11096;51.338;12.524;2023-07-13T15:26:41;3.00;;;0.77;;
21862;SDS011;11096;51.338;12.524;2023-07-13T15:29:10;5.03;;;0.88;;